PWSweather.com
Personal Weather Stations
Station Observations
BSWETTER1
Bswetter.de, BraunschweigDE 38106

Bswetter.deBraunschweigDE 38106

Lat: 52.2751483, Lon: 10.5434341

Elevation: 295

Station Type: Davis Vantage II Pro Plus Aktiv

http://bswetter.de/

Latest ConditionsUpdated 3:00:07 AM GMT+01:01 Saturday, Nov 25, 2017
Currently Today's Max Today's Min Today's Average
Temperature 41.9°F5.5°C 43.7°F6.5°C 41.8°F5.4°C 42.5°F5.8°C
Dew Point 40.6°F4.8°C 41.5°F5.3°C 40.2°F4.6°C 40.7°F4.8°C
Winds Calm Calm 1.2 mph NW1.9 kmh NW - 0.1 mph 0.2 kmh
Wind Gusts 1.2 mph1.9 kmh 3.5 mph5.6 kmh - -
Humidity 95% 95% 92% 93%
Pressure 29.84 in1010.5 mb 29.88 in1011.9 mb 29.84 in1010.5 mb -
Hour Temp Dew Point Humidity Winds Wind Gusts Pressure Precip Precip Rate Daily Precip Total
03:00 AM 41.9°F5.5°C 40.6°F4.8°C 95% Calm Calm 1.2 mph1.9 kmh 29.84 in1010.5 mb - 0.00 in0.0 mm 0.00 in0.0 mm
02:55 AM 41.9°F5.5°C 40.5°F4.7°C 95% Calm Calm 1.2 mph1.9 kmh 29.84 in1010.5 mb - 0.00 in0.0 mm 0.00 in0.0 mm
02:50 AM 41.8°F5.4°C 40.2°F4.6°C 94% Calm Calm 1.2 mph1.9 kmh 29.84 in1010.5 mb - 0.00 in0.0 mm 0.00 in0.0 mm
02:45 AM 41.9°F5.5°C 40.3°F4.6°C 94% Calm Calm -- 29.84 in1010.5 mb - 0.00 in0.0 mm 0.00 in0.0 mm
02:40 AM 41.9°F5.5°C 40.3°F4.6°C 94% Calm Calm -- 29.84 in1010.5 mb - 0.00 in0.0 mm 0.00 in0.0 mm
02:35 AM 41.9°F5.5°C 40.3°F4.6°C 94% Calm Calm -- 29.84 in1010.5 mb - 0.00 in0.0 mm 0.00 in0.0 mm
02:30 AM 42.0°F5.6°C 40.4°F4.7°C 94% Calm Calm 1.2 mph1.9 kmh 29.85 in1010.8 mb - 0.00 in0.0 mm 0.00 in0.0 mm
02:25 AM 42.0°F5.6°C 40.4°F4.7°C 94% Calm Calm -- 29.85 in1010.8 mb - 0.00 in0.0 mm 0.00 in0.0 mm
02:20 AM 42.0°F5.6°C 40.4°F4.7°C 94% Calm Calm -- 29.85 in1010.8 mb - 0.00 in0.0 mm 0.00 in0.0 mm
02:15 AM 42.0°F5.6°C 40.4°F4.7°C 94% Calm Calm -- 29.85 in1010.8 mb - 0.00 in0.0 mm 0.00 in0.0 mm
02:10 AM 42.0°F5.6°C 40.4°F4.7°C 94% Calm Calm -- 29.85 in1010.8 mb - 0.00 in0.0 mm 0.00 in0.0 mm
02:00 AM 42.1°F5.6°C 40.5°F4.7°C 94% Calm Calm -- 29.86 in1011.2 mb - 0.00 in0.0 mm 0.00 in0.0 mm
01:55 AM 42.1°F5.6°C 40.5°F4.7°C 94% Calm Calm -- 29.86 in1011.2 mb - 0.00 in0.0 mm 0.00 in0.0 mm
01:50 AM 42.1°F5.6°C 40.5°F4.7°C 94% 1.2 mph NE1.9 kmh NE 3.5 mph5.6 kmh 29.86 in1011.2 mb - 0.00 in0.0 mm 0.00 in0.0 mm
01:45 AM 42.1°F5.6°C 40.5°F4.7°C 94% Calm Calm -- 29.86 in1011.2 mb - 0.00 in0.0 mm 0.00 in0.0 mm
01:40 AM 42.1°F5.6°C 40.2°F4.6°C 93% Calm Calm -- 29.86 in1011.2 mb - 0.00 in0.0 mm 0.00 in0.0 mm
01:35 AM 42.2°F5.7°C 40.3°F4.6°C 93% Calm Calm 1.2 mph1.9 kmh 29.86 in1011.2 mb - 0.00 in0.0 mm 0.00 in0.0 mm
01:30 AM 42.3°F5.7°C 40.4°F4.7°C 93% 1.2 mph NE1.9 kmh NE 1.2 mph1.9 kmh 29.86 in1011.2 mb - 0.00 in0.0 mm 0.00 in0.0 mm
01:25 AM 42.5°F5.8°C 40.6°F4.8°C 93% 1.2 mph N1.9 kmh N 3.5 mph5.6 kmh 29.86 in1011.2 mb - 0.00 in0.0 mm 0.00 in0.0 mm
01:20 AM 42.4°F5.8°C 40.5°F4.7°C 93% Calm Calm 1.2 mph1.9 kmh 29.86 in1011.2 mb - 0.00 in0.0 mm 0.00 in0.0 mm
01:15 AM 42.4°F5.8°C 40.6°F4.8°C 93% Calm Calm -- 29.87 in1011.5 mb - 0.00 in0.0 mm 0.00 in0.0 mm
01:10 AM 42.4°F5.8°C 40.5°F4.7°C 93% Calm Calm -- 29.87 in1011.5 mb - 0.00 in0.0 mm 0.00 in0.0 mm
01:00 AM 42.6°F5.9°C 40.4°F4.7°C 92% Calm Calm 2.3 mph3.7 kmh 29.87 in1011.5 mb - 0.00 in0.0 mm 0.00 in0.0 mm
12:55 AM 42.8°F6.0°C 40.6°F4.8°C 92% 1.2 mph NW1.9 kmh NW 1.2 mph1.9 kmh 29.87 in1011.5 mb - 0.00 in0.0 mm 0.00 in0.0 mm
12:50 AM 43.1°F6.2°C 40.9°F4.9°C 92% Calm Calm 2.3 mph3.7 kmh 29.87 in1011.5 mb - 0.00 in0.0 mm 0.00 in0.0 mm
12:45 AM 43.2°F6.2°C 41.0°F5.0°C 92% Calm Calm -- 29.87 in1011.5 mb - 0.00 in0.0 mm 0.00 in0.0 mm
12:40 AM 43.3°F6.3°C 41.1°F5.1°C 92% Calm Calm 1.2 mph1.9 kmh 29.87 in1011.5 mb - 0.00 in0.0 mm 0.00 in0.0 mm
12:35 AM 43.4°F6.3°C 41.2°F5.1°C 92% Calm Calm -- 29.87 in1011.5 mb - 0.00 in0.0 mm 0.00 in0.0 mm
12:30 AM 43.5°F6.4°C 41.3°F5.2°C 92% Calm Calm -- 29.88 in1011.9 mb - 0.00 in0.0 mm 0.00 in0.0 mm
12:25 AM 43.6°F6.4°C 41.4°F5.2°C 92% Calm Calm -- 29.88 in1011.9 mb - 0.00 in0.0 mm 0.00 in0.0 mm
12:20 AM 43.6°F6.4°C 41.4°F5.2°C 92% Calm Calm -- 29.88 in1011.9 mb - 0.00 in0.0 mm 0.00 in0.0 mm
12:15 AM 43.6°F6.4°C 41.4°F5.2°C 92% Calm Calm -- 29.88 in1011.9 mb - 0.00 in0.0 mm 0.00 in0.0 mm
12:10 AM 43.6°F6.4°C 41.4°F5.2°C 92% Calm Calm -- 29.88 in1011.9 mb - 0.00 in0.0 mm 0.00 in0.0 mm
12:00 AM 43.7°F6.5°C 41.5°F5.3°C 92% Calm Calm -- 29.88 in1011.9 mb - 0.00 in0.0 mm 0.00 in0.0 mm